createdAt,value
2023-04-29T00:00:06.850Z,52.17
2023-04-29T00:02:33.664Z,52.30
2023-04-29T00:05:00.626Z,51.40
2023-04-29T00:07:27.275Z,54.13
2023-04-29T00:09:53.884Z,52.30
2023-04-29T00:12:20.452Z,52.88
2023-04-29T00:14:46.859Z,50.70
2023-04-29T00:17:13.313Z,53.35
2023-04-29T00:19:39.808Z,53.83
2023-04-29T00:22:06.245Z,51.92
2023-04-29T00:24:32.727Z,51.97
2023-04-29T00:26:59.437Z,51.60
2023-04-29T00:29:26.065Z,52.42
2023-04-29T00:31:52.544Z,53.53
2023-04-29T00:34:19.012Z,52.67
2023-04-29T00:36:45.603Z,51.05
2023-04-29T00:39:15.240Z,50.10
2023-04-29T00:41:42.632Z,52.65
2023-04-29T00:44:10.006Z,51.05
2023-04-29T00:46:36.877Z,58.22
2023-04-29T00:49:03.956Z,49.58
2023-04-29T00:51:30.833Z,50.17
2023-04-29T00:53:57.569Z,53.65
2023-04-29T00:56:24.638Z,49.75
2023-04-29T00:58:52.582Z,49.45
2023-04-29T01:01:20.213Z,48.00
2023-04-29T01:03:46.981Z,49.83
2023-04-29T01:06:51.225Z,47.78
2023-04-29T01:09:41.250Z,50.55
2023-04-29T01:12:26.297Z,47.60
2023-04-29T01:15:22.827Z,45.67
2023-04-29T01:17:55.239Z,48.13
2023-04-29T01:20:23.495Z,50.08
2023-04-29T01:22:49.956Z,47.65
2023-04-29T01:25:16.438Z,47.30
2023-04-29T01:28:05.447Z,48.95
2023-04-29T01:30:39.708Z,48.10
2023-04-29T01:33:21.320Z,48.42
2023-04-29T01:35:57.283Z,50.08
2023-04-29T01:38:33.645Z,51.00
2023-04-29T01:41:15.598Z,49.85
2023-04-29T01:43:44.419Z,50.80
2023-04-29T01:46:11.716Z,51.63
2023-04-29T01:48:38.386Z,52.17
2023-04-29T01:51:07.110Z,51.92
2023-04-29T01:53:33.658Z,49.95
2023-04-29T01:56:00.562Z,51.47
2023-04-29T01:58:28.053Z,50.17
2023-04-29T02:00:55.375Z,49.83
2023-04-29T02:03:22.212Z,50.55
2023-04-29T02:05:50.525Z,54.78
2023-04-29T02:08:18.232Z,52.85
2023-04-29T02:10:54.761Z,52.33
2023-04-29T02:13:21.527Z,52.88
2023-04-29T02:15:47.999Z,53.35
2023-04-29T02:18:14.461Z,54.83
2023-04-29T02:20:41.647Z,52.63
2023-04-29T02:23:10.419Z,56.97
2023-04-29T02:25:37.230Z,52.15
2023-04-29T02:28:03.742Z,53.05
2023-04-29T02:30:30.644Z,47.83
2023-04-29T02:32:57.215Z,48.78
2023-04-29T02:35:23.713Z,51.13
2023-04-29T02:37:50.083Z,57.83
2023-04-29T02:40:16.709Z,52.50
2023-04-29T02:42:43.121Z,54.00
2023-04-29T02:45:10.129Z,50.58
2023-04-29T02:47:36.734Z,54.97
2023-04-29T02:50:04.804Z,53.90
2023-04-29T02:52:31.271Z,54.17
2023-04-29T02:54:57.949Z,53.25
2023-04-29T02:57:24.486Z,52.50
2023-04-29T02:59:51.495Z,54.85
2023-04-29T03:02:18.523Z,52.38
2023-04-29T03:04:45.284Z,53.58
2023-04-29T03:07:11.858Z,54.53
2023-04-29T03:09:38.398Z,54.15
2023-04-29T03:12:05.133Z,50.67
2023-04-29T03:14:31.719Z,54.60
2023-04-29T03:16:58.355Z,52.33
2023-04-29T03:19:25.211Z,52.88
2023-04-29T03:21:53.381Z,51.70
2023-04-29T03:24:20.494Z,55.20
2023-04-29T03:26:47.538Z,51.10
2023-04-29T03:29:13.912Z,50.45
2023-04-29T03:31:40.481Z,53.85
2023-04-29T03:34:07.004Z,55.05
2023-04-29T03:36:33.446Z,53.13
2023-04-29T03:39:00.071Z,52.75
2023-04-29T03:41:26.576Z,51.17
2023-04-29T03:43:53.081Z,53.08
2023-04-29T03:46:19.571Z,52.42
2023-04-29T03:48:46.255Z,53.25
2023-04-29T03:51:13.386Z,53.22
2023-04-29T03:53:40.286Z,52.50
2023-04-29T03:56:07.052Z,51.70
2023-04-29T03:58:33.562Z,50.80
2023-04-29T04:01:00.145Z,52.58
2023-04-29T04:03:28.173Z,52.72
2023-04-29T04:05:55.094Z,53.45
2023-04-29T04:08:21.524Z,55.05
2023-04-29T04:10:48.044Z,54.15
2023-04-29T04:13:14.480Z,52.33
2023-04-29T04:15:42.322Z,57.60
2023-04-29T04:18:09.055Z,51.47
2023-04-29T04:20:38.325Z,54.63
2023-04-29T04:23:04.806Z,55.65
2023-04-29T04:25:31.379Z,55.00
2023-04-29T04:27:57.973Z,53.42
2023-04-29T04:30:24.427Z,54.38
2023-04-29T04:32:50.878Z,52.05
2023-04-29T04:35:17.313Z,58.72
2023-04-29T04:37:43.716Z,49.33
2023-04-29T04:40:11.964Z,53.78
2023-04-29T04:42:38.476Z,54.90
2023-04-29T04:45:05.634Z,54.55
2023-04-29T04:47:32.203Z,52.35
2023-04-29T04:49:58.623Z,52.88
2023-04-29T04:52:25.079Z,53.38
2023-04-29T04:54:51.661Z,52.70
2023-04-29T04:57:18.069Z,47.88
2023-04-29T04:59:44.545Z,51.13
2023-04-29T05:02:11.224Z,49.13
2023-04-29T05:04:37.709Z,54.65
2023-04-29T05:07:04.309Z,47.40
2023-04-29T05:09:30.887Z,45.80
2023-04-29T05:11:59.171Z,48.75
2023-04-29T05:14:26.550Z,46.53
2023-04-29T05:16:53.468Z,47.70
2023-04-29T05:19:20.151Z,43.97
2023-04-29T05:21:46.552Z,39.25
2023-04-29T05:24:12.980Z,40.78
2023-04-29T05:26:39.461Z,41.95
2023-04-29T05:29:06.051Z,41.00
2023-04-29T05:31:33.458Z,39.17
2023-04-29T05:33:59.990Z,37.90
2023-04-29T05:36:28.061Z,37.28
2023-04-29T05:38:54.640Z,33.65
2023-04-29T05:41:21.387Z,32.50
2023-04-29T05:43:47.793Z,33.95
2023-04-29T05:46:14.252Z,35.70
2023-04-29T05:48:40.813Z,36.03
2023-04-29T05:51:07.298Z,35.63
2023-04-29T05:53:33.770Z,32.28
2023-04-29T05:56:00.300Z,31.08
2023-04-29T05:58:26.753Z,30.73
2023-04-29T06:00:53.151Z,38.75
2023-04-29T06:03:19.713Z,30.60
2023-04-29T06:05:46.516Z,30.30
2023-04-29T06:08:13.547Z,32.22
2023-04-29T06:10:39.939Z,29.30
2023-04-29T06:13:06.351Z,29.17
2023-04-29T06:15:32.942Z,29.55
2023-04-29T06:17:59.499Z,31.70
2023-04-29T06:20:26.016Z,31.58
2023-04-29T06:22:52.503Z,29.55
2023-04-29T06:25:18.941Z,29.73
2023-04-29T06:27:45.431Z,28.77
2023-04-29T06:30:12.355Z,33.38
2023-04-29T06:32:41.885Z,28.25
2023-04-29T06:35:08.848Z,28.33
2023-04-29T06:37:37.750Z,29.83
2023-04-29T06:40:05.466Z,31.25
2023-04-29T06:42:31.916Z,31.50
2023-04-29T06:44:58.511Z,31.05
2023-04-29T06:47:24.993Z,29.23
2023-04-29T06:49:53.113Z,33.95
2023-04-29T06:52:19.769Z,39.25
2023-04-29T06:54:46.296Z,30.77
2023-04-29T06:57:12.748Z,30.20
2023-04-29T06:59:39.211Z,34.75
2023-04-29T07:02:06.366Z,30.45
2023-04-29T07:04:32.907Z,30.33
2023-04-29T07:06:59.624Z,29.00
2023-04-29T07:09:27.605Z,31.95
2023-04-29T07:11:54.896Z,24.25
2023-04-29T07:14:22.505Z,24.33
2023-04-29T07:16:53.520Z,24.40
2023-04-29T07:19:20.118Z,24.25
2023-04-29T07:21:46.643Z,26.38
2023-04-29T07:24:13.048Z,27.23
2023-04-29T07:26:39.432Z,22.77
2023-04-29T07:29:05.976Z,22.15
2023-04-29T07:31:34.359Z,23.67
2023-04-29T07:34:03.091Z,21.52
2023-04-29T07:36:29.571Z,21.67
2023-04-29T07:38:56.391Z,23.33
2023-04-29T07:41:22.911Z,22.23
2023-04-29T07:43:49.483Z,22.17
2023-04-29T07:46:18.303Z,27.30
2023-04-29T07:48:45.905Z,23.48
2023-04-29T07:51:15.674Z,23.83
2023-04-29T07:53:42.245Z,20.30
2023-04-29T07:56:09.143Z,19.23
2023-04-29T07:58:35.793Z,26.40
2023-04-29T08:01:12.108Z,24.38
2023-04-29T08:03:41.663Z,22.90
2023-04-29T08:06:08.715Z,22.67
2023-04-29T08:08:35.394Z,20.13
2023-04-29T08:11:01.899Z,19.98
2023-04-29T08:13:28.305Z,25.27
2023-04-29T08:15:54.973Z,18.50
2023-04-29T08:18:21.652Z,20.38
2023-04-29T08:20:49.501Z,25.08
2023-04-29T08:23:15.960Z,21.38
2023-04-29T08:25:43.905Z,21.00
2023-04-29T08:28:11.335Z,21.35
2023-04-29T08:30:41.592Z,19.48
2023-04-29T08:33:08.932Z,20.48
2023-04-29T08:35:39.018Z,20.85
2023-04-29T08:38:06.779Z,24.40
2023-04-29T08:40:42.488Z,19.70
2023-04-29T08:43:10.360Z,20.08
2023-04-29T08:45:37.704Z,28.80
2023-04-29T08:48:06.695Z,19.40
2023-04-29T08:50:39.621Z,21.75
2023-04-29T08:53:08.042Z,25.05
2023-04-29T08:55:37.016Z,19.67
2023-04-29T08:58:03.697Z,21.60
2023-04-29T09:00:32.550Z,21.67
2023-04-29T09:03:01.260Z,21.35
2023-04-29T09:05:28.741Z,21.65
2023-04-29T09:07:59.598Z,19.60
2023-04-29T09:10:26.864Z,20.67
2023-04-29T09:12:57.501Z,19.25
2023-04-29T09:15:24.249Z,18.50
2023-04-29T09:17:50.676Z,19.42
2023-04-29T09:20:20.125Z,19.77
2023-04-29T09:22:50.797Z,23.17
2023-04-29T09:25:17.725Z,21.10
2023-04-29T09:27:44.255Z,22.05
2023-04-29T09:30:12.509Z,21.00
2023-04-29T09:32:39.557Z,21.08
2023-04-29T09:35:21.325Z,22.05
2023-04-29T09:37:48.105Z,19.38
2023-04-29T09:40:31.633Z,20.65
2023-04-29T09:42:58.863Z,19.85
2023-04-29T09:45:39.668Z,20.80
2023-04-29T09:48:08.530Z,19.23
2023-04-29T09:50:37.215Z,20.02
2023-04-29T09:53:04.745Z,20.13
2023-04-29T09:55:32.009Z,22.65
2023-04-29T09:57:58.479Z,23.20
2023-04-29T10:00:28.132Z,22.55
2023-04-29T10:02:58.397Z,22.38
2023-04-29T10:05:28.206Z,21.55
2023-04-29T10:07:56.700Z,24.25
2023-04-29T10:10:24.512Z,22.38
2023-04-29T10:12:53.974Z,21.27
2023-04-29T10:15:33.598Z,22.40
2023-04-29T10:18:12.512Z,22.02
2023-04-29T10:20:45.846Z,21.42
2023-04-29T10:23:14.232Z,21.23
2023-04-29T10:25:44.157Z,22.00
2023-04-29T10:28:16.189Z,19.02
2023-04-29T10:30:44.492Z,22.80
2023-04-29T10:33:16.761Z,22.83
2023-04-29T10:35:54.073Z,20.75
2023-04-29T10:38:28.622Z,22.05
2023-04-29T10:40:58.328Z,20.98
2023-04-29T10:43:26.393Z,21.40
2023-04-29T10:46:18.976Z,20.58
2023-04-29T10:48:50.281Z,23.17
2023-04-29T10:51:31.542Z,23.27
2023-04-29T10:54:03.489Z,20.40
2023-04-29T10:56:39.303Z,22.00
2023-04-29T10:59:06.228Z,23.63
2023-04-29T11:01:49.976Z,23.45
2023-04-29T11:04:18.726Z,22.13
2023-04-29T11:06:57.429Z,21.42
2023-04-29T11:09:23.872Z,22.48
2023-04-29T11:11:58.248Z,22.10
2023-04-29T11:14:27.440Z,23.75
2023-04-29T11:16:57.904Z,20.47
2023-04-29T11:19:27.000Z,21.05
2023-04-29T11:22:13.100Z,21.00
2023-04-29T11:25:19.925Z,21.75
2023-04-29T11:27:49.039Z,22.13
2023-04-29T11:30:16.791Z,20.38
2023-04-29T11:32:43.412Z,20.88
2023-04-29T11:35:18.338Z,20.63
2023-04-29T11:37:47.116Z,20.70
2023-04-29T11:40:16.731Z,23.25
2023-04-29T11:42:49.810Z,19.80
2023-04-29T11:45:20.400Z,20.55
2023-04-29T11:47:48.393Z,20.95
2023-04-29T11:50:17.827Z,18.70
2023-04-29T11:52:46.867Z,19.55
2023-04-29T11:55:14.538Z,22.08
2023-04-29T11:57:41.014Z,19.45
2023-04-29T12:00:14.454Z,18.55
2023-04-29T12:02:46.231Z,18.40
2023-04-29T12:05:13.857Z,18.50
2023-04-29T12:07:40.473Z,20.05
2023-04-29T12:10:11.539Z,18.45
2023-04-29T12:12:40.954Z,17.10
2023-04-29T12:15:10.092Z,17.73
2023-04-29T12:17:37.454Z,19.40
2023-04-29T12:20:04.443Z,20.13
2023-04-29T12:22:32.120Z,18.50
2023-04-29T12:24:58.734Z,16.50
2023-04-29T12:27:26.566Z,16.52
2023-04-29T12:29:53.149Z,17.15
2023-04-29T12:32:23.953Z,20.02
2023-04-29T12:34:53.719Z,18.83
2023-04-29T12:37:22.524Z,19.45
2023-04-29T12:39:50.412Z,20.08
2023-04-29T12:42:17.209Z,18.65
2023-04-29T12:44:48.092Z,20.58
2023-04-29T12:47:16.354Z,20.65
2023-04-29T12:49:48.132Z,18.92
2023-04-29T12:52:14.862Z,18.85
2023-04-29T12:54:44.839Z,22.65
2023-04-29T12:57:12.235Z,21.02
2023-04-29T12:59:40.725Z,20.15
2023-04-29T13:02:07.673Z,18.88
2023-04-29T13:04:34.220Z,20.63
2023-04-29T13:07:01.005Z,17.70
2023-04-29T13:09:27.744Z,18.05
2023-04-29T13:11:54.730Z,20.48
2023-04-29T13:14:21.751Z,18.50
2023-04-29T13:16:48.750Z,20.75
2023-04-29T13:19:32.147Z,20.25
2023-04-29T13:22:01.953Z,19.25
2023-04-29T13:24:28.368Z,18.70
2023-04-29T13:26:54.920Z,17.60
2023-04-29T13:29:21.334Z,17.70
2023-04-29T13:31:48.177Z,17.75
2023-04-29T13:34:14.722Z,17.75
2023-04-29T13:36:41.285Z,18.48
2023-04-29T13:39:07.690Z,18.10
2023-04-29T13:41:35.647Z,18.33
2023-04-29T13:44:02.708Z,18.33
2023-04-29T13:46:31.500Z,17.05
2023-04-29T13:49:22.868Z,19.00
2023-04-29T13:57:37.294Z,18.13
2023-04-29T13:59:42.146Z,15.50
2023-04-29T14:04:43.968Z,19.65
2023-04-29T14:07:10.507Z,18.08
2023-04-29T14:09:36.875Z,16.15
2023-04-29T14:12:03.347Z,17.90
2023-04-29T14:14:29.753Z,17.85
2023-04-29T14:16:56.180Z,19.05
2023-04-29T14:19:22.715Z,18.02
2023-04-29T14:21:49.141Z,18.98
2023-04-29T14:24:15.863Z,19.85
2023-04-29T14:26:43.178Z,20.08
2023-04-29T14:29:09.692Z,16.60
2023-04-29T14:31:38.225Z,15.77
2023-04-29T14:34:05.010Z,19.10
2023-04-29T14:36:34.490Z,17.85
2023-04-29T14:39:01.168Z,20.35
2023-04-29T14:41:28.464Z,18.08
2023-04-29T14:43:55.015Z,17.70
2023-04-29T14:46:22.448Z,13.93
2023-04-29T14:48:49.508Z,13.75
2023-04-29T14:51:15.939Z,14.25
2023-04-29T14:53:43.076Z,16.30
2023-04-29T14:56:09.548Z,17.13
2023-04-29T14:58:36.041Z,14.48
2023-04-29T15:01:09.620Z,14.55
2023-04-29T15:03:43.499Z,18.33
2023-04-29T15:06:11.578Z,14.38
2023-04-29T15:08:38.463Z,17.20
2023-04-29T15:11:05.072Z,17.00
2023-04-29T15:13:33.711Z,14.07
2023-04-29T15:16:00.336Z,15.90
2023-04-29T15:18:27.002Z,16.58
2023-04-29T15:20:53.768Z,14.52
2023-04-29T15:23:20.648Z,16.48
2023-04-29T15:25:47.402Z,16.20
2023-04-29T15:28:13.909Z,14.30
2023-04-29T15:30:40.487Z,14.50
2023-04-29T15:33:07.413Z,15.73
2023-04-29T15:35:34.698Z,14.55
2023-04-29T15:38:01.155Z,14.80
2023-04-29T15:40:27.696Z,14.98
2023-04-29T15:42:54.144Z,15.00
2023-04-29T15:45:20.654Z,14.55
2023-04-29T15:47:47.445Z,16.17
2023-04-29T15:50:13.978Z,14.65
2023-04-29T15:52:40.541Z,15.43
2023-04-29T15:55:07.293Z,17.52
2023-04-29T15:57:34.727Z,17.40
2023-04-29T16:00:01.420Z,17.15
2023-04-29T16:02:28.369Z,14.68
2023-04-29T16:04:54.820Z,17.67
2023-04-29T16:07:21.264Z,14.45
2023-04-29T16:09:47.854Z,14.23
2023-04-29T16:12:14.424Z,13.93
2023-04-29T16:14:40.893Z,16.25
2023-04-29T16:17:07.822Z,15.07
2023-04-29T16:19:37.595Z,14.95
2023-04-29T16:22:04.693Z,15.95
2023-04-29T16:24:34.090Z,14.90
2023-04-29T16:27:01.528Z,17.40
2023-04-29T16:29:28.104Z,15.13
2023-04-29T16:31:54.809Z,16.35
2023-04-29T16:34:21.289Z,14.50
2023-04-29T16:36:48.010Z,15.00
2023-04-29T16:39:14.502Z,15.68
2023-04-29T16:41:41.625Z,22.83
2023-04-29T16:44:08.896Z,15.70
2023-04-29T16:46:36.093Z,19.92
2023-04-29T16:49:02.939Z,15.65
2023-04-29T16:51:29.352Z,14.32
2023-04-29T16:53:55.963Z,17.10
2023-04-29T16:56:22.515Z,18.52
2023-04-29T16:58:49.538Z,16.40
2023-04-29T17:01:16.409Z,18.80
2023-04-29T17:03:43.067Z,14.68
2023-04-29T17:06:09.686Z,14.57
2023-04-29T17:08:36.311Z,15.60
2023-04-29T17:11:04.850Z,18.05
2023-04-29T17:13:31.791Z,16.52
2023-04-29T17:15:58.461Z,17.05
2023-04-29T17:18:24.994Z,17.52
2023-04-29T17:20:54.788Z,16.23
2023-04-29T17:23:21.207Z,14.85
2023-04-29T17:25:47.728Z,14.35
2023-04-29T17:28:14.272Z,15.82
2023-04-29T17:30:40.816Z,15.65
2023-04-29T17:33:07.319Z,14.38
2023-04-29T17:35:34.832Z,13.70
2023-04-29T17:38:01.384Z,14.70
2023-04-29T17:40:28.588Z,14.30
2023-04-29T17:42:55.151Z,14.77
2023-04-29T17:45:21.732Z,13.77
2023-04-29T17:47:48.380Z,13.98
2023-04-29T17:50:15.245Z,14.68
2023-04-29T17:52:41.981Z,13.88
2023-04-29T17:55:08.997Z,14.70
2023-04-29T17:57:36.506Z,13.93
2023-04-29T18:00:03.488Z,14.60
2023-04-29T18:02:30.262Z,15.68
2023-04-29T18:04:56.637Z,17.75
2023-04-29T18:07:23.146Z,16.38
2023-04-29T18:09:49.632Z,15.90
2023-04-29T18:12:16.053Z,15.27
2023-04-29T18:14:42.602Z,18.27
2023-04-29T18:17:09.106Z,16.95
2023-04-29T18:19:35.628Z,17.08
2023-04-29T18:22:02.738Z,18.48
2023-04-29T18:24:29.390Z,15.55
2023-04-29T18:26:57.506Z,19.15
2023-04-29T18:29:26.454Z,16.20
2023-04-29T18:31:54.692Z,18.58
2023-04-29T18:34:21.299Z,18.10
2023-04-29T18:36:47.700Z,16.15
2023-04-29T18:39:14.197Z,14.60
2023-04-29T18:41:40.743Z,15.63
2023-04-29T18:44:07.248Z,18.50
2023-04-29T18:46:33.798Z,18.35
2023-04-29T18:49:00.263Z,18.27
2023-04-29T18:51:26.772Z,16.08
2023-04-29T18:53:53.563Z,16.20
2023-04-29T18:56:19.989Z,13.38
2023-04-29T18:58:46.553Z,16.42
2023-04-29T19:01:12.986Z,14.05
2023-04-29T19:03:40.293Z,14.48
2023-04-29T19:06:06.781Z,15.48
2023-04-29T19:08:33.212Z,14.38
2023-04-29T19:11:00.776Z,12.15
2023-04-29T19:13:27.750Z,22.10
2023-04-29T19:15:55.068Z,16.30
2023-04-29T19:18:23.113Z,13.95
2023-04-29T19:20:50.253Z,13.45
2023-04-29T19:23:16.742Z,17.42
2023-04-29T19:25:43.982Z,19.30
2023-04-29T19:28:10.461Z,13.88
2023-04-29T19:30:37.380Z,19.45
2023-04-29T19:33:04.218Z,13.77
2023-04-29T19:35:30.826Z,14.55
2023-04-29T19:37:57.574Z,16.95
2023-04-29T19:40:24.323Z,13.23
2023-04-29T19:42:50.817Z,16.25
2023-04-29T19:45:17.346Z,13.52
2023-04-29T19:47:44.125Z,17.42
2023-04-29T19:50:10.830Z,20.80
2023-04-29T19:52:37.275Z,17.33
2023-04-29T19:55:04.800Z,16.05
2023-04-29T19:57:39.054Z,15.52
2023-04-29T20:00:06.346Z,11.18
2023-04-29T20:02:33.241Z,16.80
2023-04-29T20:04:59.876Z,12.70
2023-04-29T20:07:26.286Z,17.88
2023-04-29T20:09:53.287Z,24.45
2023-04-29T20:12:19.920Z,21.52
2023-04-29T20:14:46.759Z,15.98
2023-04-29T20:17:13.560Z,20.60
2023-04-29T20:19:40.072Z,14.77
2023-04-29T20:22:06.492Z,16.52
2023-04-29T20:24:32.912Z,19.90
2023-04-29T20:26:59.325Z,17.58
2023-04-29T20:29:27.098Z,15.77
2023-04-29T20:31:53.543Z,21.55
2023-04-29T20:34:20.049Z,18.33
2023-04-29T20:36:46.709Z,28.38
2023-04-29T20:39:13.318Z,26.20
2023-04-29T20:41:39.914Z,22.15
2023-04-29T20:44:06.301Z,19.25
2023-04-29T20:46:32.908Z,15.95
2023-04-29T20:48:59.445Z,15.48
2023-04-29T20:51:26.721Z,18.38
2023-04-29T20:53:53.260Z,15.88
2023-04-29T20:56:19.682Z,23.90
2023-04-29T20:58:46.237Z,22.92
2023-04-29T21:01:12.887Z,18.80
2023-04-29T21:03:39.471Z,17.75
2023-04-29T21:06:06.012Z,22.27
2023-04-29T21:08:32.552Z,20.42
2023-04-29T21:10:58.969Z,18.17
2023-04-29T21:13:25.961Z,17.33
2023-04-29T21:15:52.505Z,22.83
2023-04-29T21:18:19.187Z,18.23
2023-04-29T21:20:46.276Z,20.13
2023-04-29T21:23:12.761Z,19.15
2023-04-29T21:25:39.217Z,18.50
2023-04-29T21:28:05.639Z,23.00
2023-04-29T21:30:32.046Z,28.00
2023-04-29T21:32:58.533Z,21.17
2023-04-29T21:35:26.321Z,23.98
2023-04-29T21:37:52.837Z,32.08
2023-04-29T21:40:19.383Z,21.02
2023-04-29T21:42:46.380Z,24.40
2023-04-29T21:45:17.710Z,19.63
2023-04-29T21:47:45.012Z,26.77
2023-04-29T21:50:11.899Z,19.42
2023-04-29T21:52:38.600Z,23.88
2023-04-29T21:55:05.587Z,19.95
2023-04-29T21:57:43.614Z,25.67
2023-04-29T22:00:28.214Z,18.88
2023-04-29T22:02:54.663Z,18.33
2023-04-29T22:05:21.084Z,25.80
2023-04-29T22:07:47.471Z,20.90
2023-04-29T22:10:13.860Z,33.70
2023-04-29T22:12:40.301Z,21.38
2023-04-29T22:15:09.124Z,29.38
2023-04-29T22:17:40.572Z,18.30
2023-04-29T22:20:07.924Z,30.23
2023-04-29T22:22:34.340Z,32.13
2023-04-29T22:25:00.888Z,26.75
2023-04-29T22:27:27.384Z,25.38
2023-04-29T22:29:54.352Z,21.23
2023-04-29T22:32:21.223Z,27.52
2023-04-29T22:34:47.700Z,22.65
2023-04-29T22:37:14.557Z,20.70
2023-04-29T22:39:41.057Z,24.15
2023-04-29T22:42:07.519Z,26.80
2023-04-29T22:44:33.978Z,24.55
2023-04-29T22:47:01.076Z,30.55
2023-04-29T22:49:27.662Z,22.00
2023-04-29T22:51:54.073Z,27.98
2023-04-29T22:54:21.121Z,31.50
2023-04-29T22:56:47.731Z,22.50
2023-04-29T22:59:14.485Z,25.08
2023-04-29T23:01:41.104Z,28.85
2023-04-29T23:04:08.043Z,23.88
2023-04-29T23:06:35.266Z,26.35
2023-04-29T23:09:01.755Z,23.42
2023-04-29T23:11:28.774Z,26.00
2023-04-29T23:13:55.477Z,21.83
2023-04-29T23:16:22.272Z,24.95
2023-04-29T23:18:49.419Z,18.17
2023-04-29T23:21:15.894Z,27.58
2023-04-29T23:23:42.450Z,27.42
2023-04-29T23:26:09.084Z,23.95
2023-04-29T23:28:35.494Z,20.88
2023-04-29T23:31:01.964Z,24.52
2023-04-29T23:33:28.386Z,25.27
2023-04-29T23:35:54.804Z,19.73
2023-04-29T23:38:21.337Z,22.92
2023-04-29T23:40:47.921Z,19.15
2023-04-29T23:43:17.297Z,31.98
2023-04-29T23:45:45.115Z,37.40
2023-04-29T23:48:12.276Z,27.20
2023-04-29T23:50:38.717Z,23.10
2023-04-29T23:53:05.131Z,28.50
2023-04-29T23:55:32.396Z,26.88
2023-04-29T23:57:58.784Z,33.75
